Time;durP1;ratioP1;P1;durP2;ratioP2;P2;SDS_P1;SDS_P2;PMS_P1;PMS_P2;Temp;Humidity;BMP_temperature;BMP_pressure;BME280_temperature;BME280_humidity;BME280_pressure;Samples;Min_cycle;Max_cycle;Signal;HPM_P1;HPM_P2
2021/07/05 00:01:20;;;;;;;3.20;2.60;;;15.40;99.90;;;;;;4965239;29;20522;-79
2021/07/05 00:03:46;;;;;;;2.45;2.17;;;15.40;99.90;;;;;;4965401;29;20086;-81
2021/07/05 00:06:12;;;;;;;3.67;2.70;;;15.40;99.90;;;;;;4949336;29;20042;-81
2021/07/05 00:08:38;;;;;;;3.17;2.65;;;15.40;99.90;;;;;;4949144;29;20035;-81
2021/07/05 00:11:04;;;;;;;3.65;3.30;;;15.40;99.90;;;;;;4948849;29;20070;-81
2021/07/05 00:13:31;;;;;;;5.55;2.17;;;15.40;99.90;;;;;;4965254;28;20050;-81
2021/07/05 00:15:57;;;;;;;3.03;2.28;;;15.40;99.90;;;;;;4965088;29;20131;-80
2021/07/05 00:18:24;;;;;;;3.70;2.47;;;15.30;99.90;;;;;;4965251;29;20103;-81
2021/07/05 00:20:50;;;;;;;3.38;2.58;;;15.30;99.90;;;;;;4948869;29;20047;-80
2021/07/05 00:23:16;;;;;;;4.05;2.50;;;15.30;99.90;;;;;;4965034;28;20126;-81
2021/07/05 00:25:42;;;;;;;2.53;2.28;;;15.30;99.90;;;;;;4960706;28;20046;-81
2021/07/05 00:28:09;;;;;;;4.05;2.95;;;15.30;99.90;;;;;;5005738;28;20030;-81
2021/07/05 00:30:35;;;;;;;3.00;1.75;;;15.30;99.90;;;;;;5005975;28;20054;-81
2021/07/05 00:33:01;;;;;;;4.13;2.30;;;15.30;99.90;;;;;;4988455;28;20037;-80
2021/07/05 00:35:27;;;;;;;3.53;2.10;;;15.30;99.90;;;;;;5004700;28;20035;-81
2021/07/05 00:37:55;;;;;;;4.57;2.38;;;15.30;99.90;;;;;;5006107;28;20034;-81
2021/07/05 00:40:22;;;;;;;5.47;1.95;;;15.30;99.90;;;;;;5004881;28;20042;-80
2021/07/05 00:42:48;;;;;;;3.53;1.95;;;15.30;99.90;;;;;;5005932;28;20033;-80
2021/07/05 00:45:15;;;;;;;2.45;1.60;;;15.30;99.90;;;;;;5005992;28;20038;-81
2021/07/05 00:47:41;;;;;;;2.17;1.30;;;15.40;99.90;;;;;;5004404;28;20093;-81
2021/07/05 00:50:08;;;;;;;1.80;1.15;;;15.40;99.90;;;;;;5004358;28;20046;-80
2021/07/05 00:52:36;;;;;;;3.67;1.58;;;15.30;99.90;;;;;;5005848;28;20026;-80
2021/07/05 00:55:04;;;;;;;2.35;1.33;;;15.40;99.90;;;;;;5005829;28;20030;-79
2021/07/05 00:57:30;;;;;;;3.25;1.70;;;15.30;99.90;;;;;;5005580;28;20046;-79
2021/07/05 00:59:57;;;;;;;2.10;1.20;;;15.40;99.90;;;;;;4972341;28;20034;-79
2021/07/05 01:02:24;;;;;;;2.00;1.30;;;15.40;99.90;;;;;;4988378;28;20030;-81
2021/07/05 01:04:50;;;;;;;3.65;1.10;;;15.30;99.90;;;;;;5005856;28;20045;-81
2021/07/05 01:07:17;;;;;;;3.75;1.52;;;15.30;99.90;;;;;;5005822;28;20026;-80
2021/07/05 01:09:43;;;;;;;5.35;1.88;;;15.30;99.90;;;;;;5004370;28;20630;-80
2021/07/05 01:12:10;;;;;;;2.80;1.67;;;15.20;99.90;;;;;;4987981;28;20030;-80
2021/07/05 01:14:36;;;;;;;2.08;0.85;;;15.10;99.90;;;;;;5004339;28;20057;-80
2021/07/05 01:17:03;;;;;;;2.03;0.93;;;15.10;99.90;;;;;;5004196;28;20026;-80
2021/07/05 01:19:29;;;;;;;2.08;0.90;;;15.00;99.90;;;;;;5004518;28;20041;-80
2021/07/05 01:21:55;;;;;;;2.00;1.17;;;15.10;99.90;;;;;;4988080;28;20102;-80
2021/07/05 01:24:21;;;;;;;3.70;0.80;;;15.00;99.90;;;;;;5005722;28;20038;-80
2021/07/05 01:26:47;;;;;;;1.60;1.08;;;15.00;99.90;;;;;;5004276;28;20124;-80
2021/07/05 01:29:13;;;;;;;2.47;1.13;;;15.00;99.90;;;;;;5004296;28;20483;-79
2021/07/05 01:31:38;;;;;;;1.50;0.70;;;15.00;99.90;;;;;;5004306;28;20418;-79
2021/07/05 01:34:04;;;;;;;1.85;0.52;;;15.00;99.90;;;;;;4987921;28;20030;-80
2021/07/05 01:36:30;;;;;;;2.30;0.80;;;15.00;99.90;;;;;;5005691;28;20056;-80
2021/07/05 01:38:57;;;;;;;2.28;0.80;;;15.00;99.90;;;;;;5008512;28;20037;-80
2021/07/05 01:41:23;;;;;;;2.15;0.60;;;14.90;99.90;;;;;;5007741;28;20521;-81
2021/07/05 01:43:49;;;;;;;1.30;0.60;;;14.90;99.90;;;;;;5008846;28;20047;-80
2021/07/05 01:46:35;;;;;;;1.50;0.60;;;14.90;99.90;;;;;;5008793;28;20038;-79
2021/07/05 01:49:00;;;;;;;1.77;0.73;;;14.90;99.90;;;;;;4986796;28;20097;-81
2021/07/05 01:51:26;;;;;;;1.90;0.90;;;14.90;99.90;;;;;;4987040;28;20047;-81
2021/07/05 01:53:52;;;;;;;1.40;0.70;;;14.80;99.90;;;;;;4986951;28;20568;-80
2021/07/05 01:56:17;;;;;;;2.55;0.70;;;14.70;99.90;;;;;;4967825;28;20050;-80
2021/07/05 01:58:43;;;;;;;2.33;0.75;;;14.70;99.90;;;;;;4951455;29;20094;-80
2021/07/05 02:01:09;;;;;;;2.05;0.70;;;14.70;99.90;;;;;;4951522;29;20040;-80
2021/07/05 02:03:35;;;;;;;2.28;0.75;;;14.70;99.90;;;;;;4951302;29;20408;-80
2021/07/05 02:06:01;;;;;;;1.98;0.80;;;14.70;99.90;;;;;;4951511;29;20070;-81
2021/07/05 02:08:26;;;;;;;1.67;0.60;;;14.60;99.90;;;;;;4967424;28;20035;-81
2021/07/05 02:10:53;;;;;;;4.35;0.65;;;14.60;99.90;;;;;;4967323;29;20031;-81
2021/07/05 02:13:20;;;;;;;1.95;0.60;;;14.60;99.90;;;;;;4951151;29;20039;-81
2021/07/05 02:15:47;;;;;;;1.42;0.90;;;14.50;99.90;;;;;;4967114;29;20046;-81
2021/07/05 02:18:13;;;;;;;2.78;0.70;;;14.50;99.90;;;;;;4951273;29;20122;-81
2021/07/05 02:20:39;;;;;;;2.40;0.80;;;14.50;99.90;;;;;;4967214;29;20099;-82
2021/07/05 02:23:09;;;;;;;2.88;1.00;;;14.50;99.90;;;;;;4967344;29;20032;-81
2021/07/05 02:25:36;;;;;;;2.72;1.05;;;14.50;99.90;;;;;;4973750;28;20138;-81
2021/07/05 02:28:08;;;;;;;2.00;0.90;;;14.50;99.90;;;;;;4988619;28;20038;-78
2021/07/05 02:30:34;;;;;;;1.70;0.95;;;14.50;99.90;;;;;;4971037;28;20080;-82
2021/07/05 02:33:00;;;;;;;3.42;1.10;;;14.50;99.90;;;;;;4988603;28;20027;-81
2021/07/05 02:35:29;;;;;;;4.63;1.00;;;14.60;99.90;;;;;;4988712;28;20034;-81
2021/07/05 02:37:55;;;;;;;1.85;1.13;;;14.70;99.90;;;;;;4988501;28;20039;-81
2021/07/05 02:40:28;;;;;;;13.48;1.75;;;14.70;99.90;;;;;;4988411;28;20027;-80
2021/07/05 02:42:54;;;;;;;1.98;1.00;;;14.60;99.90;;;;;;4971063;28;20102;-81
2021/07/05 02:45:24;;;;;;;2.53;1.17;;;14.70;99.90;;;;;;4988254;28;20043;-81
2021/07/05 02:48:01;;;;;;;2.25;0.80;;;14.70;99.90;;;;;;4986803;28;20035;-80
2021/07/05 02:50:27;;;;;;;2.20;0.95;;;14.80;99.90;;;;;;4985714;28;20129;-81
2021/07/05 02:52:54;;;;;;;3.15;1.00;;;14.80;99.90;;;;;;4987021;28;20037;-80
2021/07/05 02:55:20;;;;;;;4.90;1.58;;;14.80;99.90;;;;;;4983503;28;20125;-81
2021/07/05 02:57:48;;;;;;;2.60;1.65;;;14.80;99.90;;;;;;5006360;28;20030;-81
2021/07/05 03:00:29;;;;;;;2.65;1.20;;;14.80;99.90;;;;;;5006061;28;20034;-81
2021/07/05 03:02:55;;;;;;;4.90;1.20;;;14.80;99.90;;;;;;5007724;28;20101;-81
2021/07/05 03:05:25;;;;;;;4.03;1.05;;;14.80;99.90;;;;;;5007478;28;20035;-81
2021/07/05 03:07:52;;;;;;;;;;;14.80;99.90;;;;;;5006576;28;20034;-81
2021/07/05 03:10:22;;;;;;;3.33;0.82;;;14.80;99.90;;;;;;5005886;28;19973;-81
2021/07/05 03:12:49;;;;;;;3.75;1.35;;;14.90;99.90;;;;;;5007391;28;20482;-81
2021/07/05 03:15:16;;;;;;;1.90;1.25;;;14.90;99.90;;;;;;5007258;28;20039;-81
2021/07/05 03:17:44;;;;;;;4.65;1.90;;;15.00;99.90;;;;;;5007182;28;20033;-81
2021/07/05 03:20:15;;;;;;;2.83;2.55;;;15.00;99.90;;;;;;5007213;28;20033;-82
2021/07/05 03:22:42;;;;;;;3.75;2.70;;;15.10;99.90;;;;;;5007172;28;20038;-80
2021/07/05 03:25:10;;;;;;;3.13;2.10;;;15.10;99.90;;;;;;5005719;28;20117;-81
2021/07/05 03:27:37;;;;;;;2.53;1.95;;;15.10;99.90;;;;;;5005758;28;20034;-81
2021/07/05 03:30:05;;;;;;;2.65;2.25;;;15.10;99.90;;;;;;5005612;28;20042;-81
2021/07/05 03:32:31;;;;;;;3.42;1.70;;;15.20;99.90;;;;;;5007023;28;20486;-80
2021/07/05 03:34:57;;;;;;;3.75;1.60;;;15.20;99.90;;;;;;4989430;28;20058;-82
2021/07/05 03:37:22;;;;;;;2.55;1.50;;;15.20;99.90;;;;;;4989451;28;20092;-81
2021/07/05 03:39:48;;;;;;;2.33;1.45;;;15.20;99.90;;;;;;5004920;28;20084;-81
2021/07/05 03:42:13;;;;;;;2.72;1.42;;;15.20;99.90;;;;;;5006198;28;20026;-80
2021/07/05 03:44:39;;;;;;;2.50;1.50;;;15.30;99.90;;;;;;5004676;28;20275;-81
2021/07/05 03:47:05;;;;;;;4.20;2.63;;;15.30;99.90;;;;;;5004381;28;20034;-80
2021/07/05 03:49:30;;;;;;;3.35;2.45;;;15.30;99.90;;;;;;5005903;28;20070;-80
2021/07/05 03:51:56;;;;;;;4.55;3.42;;;15.20;99.90;;;;;;5004691;28;20117;-81
2021/07/05 03:54:21;;;;;;;3.45;2.13;;;15.30;99.90;;;;;;5004758;28;20073;-81
2021/07/05 03:56:47;;;;;;;4.28;2.65;;;15.30;99.90;;;;;;5021085;28;20038;-81
2021/07/05 03:59:13;;;;;;;4.55;2.92;;;15.30;99.90;;;;;;5005414;28;20027;-80
2021/07/05 04:01:39;;;;;;;7.13;4.47;;;15.30;99.90;;;;;;5004431;28;20034;-81
2021/07/05 04:04:04;;;;;;;7.10;4.20;;;15.30;99.90;;;;;;5021585;28;20038;-81
2021/07/05 04:06:30;;;;;;;7.68;5.88;;;15.30;99.90;;;;;;5021653;28;20085;-81
2021/07/05 04:08:58;;;;;;;6.70;4.55;;;15.30;99.90;;;;;;5021753;28;20089;-82
2021/07/05 04:11:24;;;;;;;7.90;4.70;;;15.30;99.90;;;;;;5005219;28;20034;-82
2021/07/05 04:13:50;;;;;;;11.23;4.55;;;15.20;99.90;;;;;;5005177;28;20039;-82
2021/07/05 04:16:16;;;;;;;5.72;2.63;;;15.20;99.90;;;;;;5006071;28;20061;-82
2021/07/05 04:18:42;;;;;;;4.78;1.95;;;15.00;99.90;;;;;;5021436;28;20058;-83
2021/07/05 04:21:08;;;;;;;3.92;1.58;;;14.90;99.90;;;;;;5005423;28;20033;-82
2021/07/05 04:23:34;;;;;;;2.88;0.80;;;14.80;99.90;;;;;;4989259;28;20026;-82
2021/07/05 04:26:02;;;;;;;2.17;0.80;;;14.70;99.90;;;;;;4990005;28;20030;-81
2021/07/05 04:28:29;;;;;;;2.83;0.65;;;14.70;99.90;;;;;;5004968;28;20034;-82
2021/07/05 04:30:55;;;;;;;4.47;0.57;;;14.60;99.90;;;;;;4988504;28;20038;-82
2021/07/05 04:33:21;;;;;;;2.83;0.70;;;14.60;99.90;;;;;;5004967;28;20034;-81
2021/07/05 04:35:47;;;;;;;1.33;0.40;;;14.50;99.90;;;;;;5004784;28;20169;-81
2021/07/05 04:38:13;;;;;;;1.15;0.43;;;14.50;99.90;;;;;;5020823;28;20054;-81
2021/07/05 04:40:40;;;;;;;1.48;0.40;;;14.50;99.90;;;;;;5005537;28;20034;-82
2021/07/05 04:43:07;;;;;;;3.70;0.32;;;14.50;99.90;;;;;;5002280;28;20027;-83
2021/07/05 04:45:33;;;;;;;0.60;0.30;;;14.50;99.90;;;;;;5017464;28;20034;-83
2021/07/05 04:48:01;;;;;;;1.67;0.20;;;14.50;99.90;;;;;;5001054;28;20026;-84
2021/07/05 04:50:28;;;;;;;1.95;0.30;;;14.60;99.90;;;;;;4971254;28;20065;-84
2021/07/05 04:52:54;;;;;;;2.97;0.30;;;14.60;99.90;;;;;;4971520;28;20030;-84
2021/07/05 04:55:21;;;;;;;1.42;0.30;;;14.60;99.90;;;;;;4997379;28;20114;-83
2021/07/05 04:57:49;;;;;;;0.68;0.30;;;14.60;99.90;;;;;;4987406;28;20058;-83
2021/07/05 05:00:21;;;;;;;0.98;0.30;;;14.50;99.90;;;;;;4987301;28;20035;-83
2021/07/05 05:02:47;;;;;;;1.10;0.20;;;14.50;99.90;;;;;;5003494;28;20035;-83
2021/07/05 05:05:13;;;;;;;1.40;0.30;;;14.40;99.90;;;;;;4986893;28;20042;-83
2021/07/05 05:07:39;;;;;;;0.98;0.50;;;14.30;99.90;;;;;;5020153;28;20459;-84
2021/07/05 05:10:08;;;;;;;3.22;0.40;;;14.20;99.90;;;;;;5003570;28;20106;-83
2021/07/05 05:12:34;;;;;;;0.90;0.30;;;14.00;99.90;;;;;;5004666;28;20026;-83
2021/07/05 05:15:00;;;;;;;1.27;0.40;;;14.10;99.90;;;;;;5008584;28;20034;-82
2021/07/05 05:17:26;;;;;;;1.45;0.40;;;14.10;99.90;;;;;;5006737;28;20031;-83
2021/07/05 05:19:51;;;;;;;2.08;0.50;;;14.20;99.90;;;;;;5007282;28;20061;-82
2021/07/05 05:22:17;;;;;;;2.08;0.30;;;14.30;99.90;;;;;;5023516;28;20034;-83
2021/07/05 05:24:43;;;;;;;3.55;0.40;;;14.30;99.90;;;;;;4990912;28;20141;-82
2021/07/05 05:27:09;;;;;;;1.60;0.40;;;14.30;99.90;;;;;;5007138;28;20360;-83
2021/07/05 05:29:36;;;;;;;1.98;0.30;;;14.30;99.90;;;;;;5023163;28;20041;-82
2021/07/05 05:32:02;;;;;;;1.52;0.40;;;14.30;99.90;;;;;;5006637;28;20057;-82
2021/07/05 05:34:28;;;;;;;2.47;0.40;;;14.40;99.90;;;;;;4990700;28;20447;-82
2021/07/05 05:36:54;;;;;;;2.25;0.35;;;14.30;99.90;;;;;;4990764;28;20023;-83
2021/07/05 05:39:20;;;;;;;0.82;0.30;;;14.30;99.90;;;;;;4990591;28;20430;-82
2021/07/05 05:41:45;;;;;;;1.08;0.40;;;14.30;99.90;;;;;;5006725;28;20078;-82
2021/07/05 05:44:11;;;;;;;2.40;0.40;;;14.50;99.90;;;;;;5006646;28;20121;-82
2021/07/05 05:46:37;;;;;;;1.30;0.30;;;14.60;99.90;;;;;;4989763;28;20445;-83
2021/07/05 05:49:03;;;;;;;2.60;0.45;;;14.60;99.90;;;;;;5006708;28;20035;-81
2021/07/05 05:51:35;;;;;;;2.35;0.77;;;14.60;99.90;;;;;;5006586;28;20090;-81
2021/07/05 05:54:05;;;;;;;1.92;0.35;;;14.60;99.90;;;;;;4990356;28;20125;-81
2021/07/05 05:56:32;;;;;;;1.90;0.40;;;14.60;99.90;;;;;;4990978;28;20056;-80
2021/07/05 05:59:08;;;;;;;2.38;0.65;;;14.60;99.90;;;;;;4970944;28;20058;-80
2021/07/05 06:01:36;;;;;;;1.65;0.90;;;14.70;99.90;;;;;;4986605;28;20041;-82
2021/07/05 06:04:03;;;;;;;3.38;0.95;;;14.70;99.90;;;;;;4999287;28;20070;-81
2021/07/05 06:06:29;;;;;;;2.92;0.68;;;14.70;99.90;;;;;;4993071;28;20071;-80
2021/07/05 06:08:56;;;;;;;2.65;0.60;;;14.70;99.90;;;;;;5009585;28;20124;-81
2021/07/05 06:11:21;;;;;;;2.05;0.70;;;14.80;99.90;;;;;;5027484;28;20092;-80
2021/07/05 06:13:48;;;;;;;2.72;0.60;;;14.80;99.90;;;;;;5009595;28;20026;-81
2021/07/05 06:16:14;;;;;;;2.67;0.60;;;14.70;99.90;;;;;;5009179;28;20064;-80
2021/07/05 06:18:40;;;;;;;2.60;0.60;;;14.80;99.90;;;;;;5009305;28;20094;-80
2021/07/05 06:21:06;;;;;;;1.83;0.50;;;14.80;99.90;;;;;;4993292;28;20069;-81
2021/07/05 06:23:32;;;;;;;2.28;0.60;;;14.80;99.90;;;;;;5009239;28;20107;-80
2021/07/05 06:26:01;;;;;;;2.33;0.50;;;14.70;99.90;;;;;;5009482;28;20026;-80
2021/07/05 06:28:29;;;;;;;1.65;0.70;;;14.70;99.90;;;;;;5027075;28;20449;-81
2021/07/05 06:30:57;;;;;;;2.30;1.20;;;14.80;99.90;;;;;;4992726;28;20033;-81
2021/07/05 06:33:22;;;;;;;4.53;1.33;;;14.80;99.90;;;;;;5009337;28;20092;-80
2021/07/05 06:35:48;;;;;;;2.25;1.50;;;14.80;99.90;;;;;;5026859;28;20493;-82
2021/07/05 06:38:15;;;;;;;4.80;1.85;;;14.70;99.90;;;;;;4979824;28;20046;-81
2021/07/05 06:40:43;;;;;;;3.13;1.00;;;14.70;99.90;;;;;;5006793;28;20045;-81
2021/07/05 06:43:08;;;;;;;1.50;0.60;;;14.80;99.90;;;;;;5005442;28;20101;-81
2021/07/05 06:45:36;;;;;;;2.20;0.60;;;14.80;99.90;;;;;;5006655;28;20038;-80
2021/07/05 06:48:02;;;;;;;4.53;0.70;;;14.90;99.90;;;;;;5004951;28;20030;-81
2021/07/05 06:50:29;;;;;;;4.05;0.70;;;14.90;99.90;;;;;;5002986;28;20050;-80
2021/07/05 06:52:56;;;;;;;3.08;0.80;;;14.90;99.90;;;;;;5006988;28;20027;-81
2021/07/05 06:55:22;;;;;;;5.80;1.45;;;15.00;99.90;;;;;;5006690;28;20036;-81
2021/07/05 06:57:48;;;;;;;2.40;1.42;;;15.10;99.90;;;;;;5006863;28;20053;-80
2021/07/05 07:00:17;;;;;;;3.03;1.33;;;15.00;99.90;;;;;;4988902;28;20060;-80
2021/07/05 07:02:43;;;;;;;3.00;1.33;;;15.20;99.90;;;;;;4989052;28;20098;-80
2021/07/05 07:05:12;;;;;;;2.67;1.25;;;15.30;99.90;;;;;;4988884;28;20313;-81
2021/07/05 07:07:39;;;;;;;3.53;1.43;;;15.40;99.90;;;;;;5006643;28;20052;-80
2021/07/05 07:10:06;;;;;;;5.00;1.50;;;15.40;99.90;;;;;;5005355;28;20038;-80
2021/07/05 07:12:35;;;;;;;4.97;1.50;;;15.40;99.90;;;;;;4988903;28;20030;-79
2021/07/05 07:15:02;;;;;;;4.75;0.93;;;15.60;99.90;;;;;;5005077;28;20120;-81
2021/07/05 07:19:53;;;;;;;2.83;1.45;;;15.80;99.90;;;;;;5006286;28;20030;-81
2021/07/05 07:22:19;;;;;;;5.20;0.88;;;15.90;99.90;;;;;;5005315;28;20084;-81
2021/07/05 07:24:45;;;;;;;4.80;1.42;;;15.90;99.90;;;;;;5004804;28;20046;-80
2021/07/05 07:27:11;;;;;;;3.60;1.45;;;16.00;99.90;;;;;;4972553;28;20069;-80
2021/07/05 07:29:36;;;;;;;3.03;1.13;;;16.10;99.90;;;;;;5004380;28;20185;-80
2021/07/05 07:32:02;;;;;;;3.22;1.52;;;16.10;99.90;;;;;;4988540;28;20030;-80
2021/07/05 07:34:28;;;;;;;4.28;1.58;;;16.10;99.90;;;;;;4988484;28;20105;-79
2021/07/05 07:36:56;;;;;;;4.13;1.20;;;16.30;99.90;;;;;;5005628;28;20029;-78
2021/07/05 07:39:28;;;;;;;6.13;1.13;;;16.20;99.90;;;;;;4988275;28;20030;-79
2021/07/05 07:41:53;;;;;;;4.63;1.60;;;16.40;99.90;;;;;;5004756;28;20026;-79
2021/07/05 07:44:19;;;;;;;4.32;1.70;;;16.50;99.90;;;;;;5004180;28;20041;-78
2021/07/05 07:46:44;;;;;;;3.40;1.13;;;16.40;99.90;;;;;;5004418;28;20057;-79
2021/07/05 07:49:10;;;;;;;5.32;2.17;;;16.40;99.90;;;;;;5004167;28;20094;-79
2021/07/05 07:51:36;;;;;;;7.45;1.85;;;16.40;99.90;;;;;;5005634;28;20062;-79
2021/07/05 07:54:02;;;;;;;9.48;2.33;;;16.60;99.90;;;;;;5004301;28;20130;-79
2021/07/05 07:56:30;;;;;;;5.10;2.00;;;16.60;99.90;;;;;;5005796;28;20026;-80
2021/07/05 07:58:56;;;;;;;4.68;1.48;;;16.80;99.90;;;;;;4987956;28;20038;-79
2021/07/05 08:01:22;;;;;;;4.75;1.38;;;17.10;99.90;;;;;;4988171;28;20037;-78
2021/07/05 08:03:47;;;;;;;3.40;1.30;;;17.30;99.90;;;;;;4988170;28;20038;-79
2021/07/05 08:06:13;;;;;;;4.70;1.35;;;17.60;99.90;;;;;;5004264;28;20042;-79
2021/07/05 08:08:39;;;;;;;5.35;1.25;;;17.60;99.90;;;;;;4987926;28;20034;-79
2021/07/05 08:11:04;;;;;;;4.95;2.10;;;17.80;99.90;;;;;;5004264;28;20042;-79
2021/07/05 08:13:30;;;;;;;5.55;1.50;;;17.90;99.90;;;;;;5003908;28;20035;-79
2021/07/05 08:15:56;;;;;;;5.07;1.65;;;18.00;99.90;;;;;;5004042;28;20035;-79
2021/07/05 08:18:21;;;;;;;4.30;1.67;;;17.90;99.90;;;;;;4987913;28;20049;-79
2021/07/05 08:20:47;;;;;;;5.85;1.75;;;18.10;99.90;;;;;;5005367;28;20030;-80
2021/07/05 08:23:13;;;;;;;4.32;1.38;;;17.90;99.90;;;;;;5005257;28;20048;-79
2021/07/05 08:25:39;;;;;;;7.38;1.85;;;17.80;99.90;;;;;;5005494;28;20046;-79
2021/07/05 08:28:05;;;;;;;4.70;1.80;;;17.60;99.90;;;;;;4987690;28;20030;-79
2021/07/05 08:30:31;;;;;;;5.97;1.48;;;17.90;99.90;;;;;;5003973;28;20049;-79
2021/07/05 08:32:57;;;;;;;3.50;1.73;;;17.70;99.90;;;;;;5004110;28;20034;-79
2021/07/05 08:35:24;;;;;;;5.82;1.58;;;17.50;99.90;;;;;;4987674;28;20030;-79
2021/07/05 08:37:52;;;;;;;7.38;1.63;;;18.00;99.90;;;;;;5004081;28;20109;-79
2021/07/05 08:40:19;;;;;;;6.43;1.85;;;18.00;99.90;;;;;;4987559;28;20026;-80
2021/07/05 08:42:45;;;;;;;5.28;1.55;;;18.00;99.90;;;;;;5005295;28;20117;-79
2021/07/05 08:45:12;;;;;;;4.22;1.33;;;17.90;99.90;;;;;;4987511;28;20133;-79
2021/07/05 08:47:40;;;;;;;4.80;1.65;;;18.10;99.90;;;;;;5004891;28;20093;-79
2021/07/05 08:50:08;;;;;;;4.03;1.30;;;18.20;99.90;;;;;;5007937;28;20487;-79
2021/07/05 08:52:35;;;;;;;5.97;1.27;;;18.40;99.90;;;;;;4991394;28;20035;-80
2021/07/05 08:55:01;;;;;;;4.57;0.80;;;18.30;99.90;;;;;;4991258;28;20042;-80
2021/07/05 08:57:29;;;;;;;5.00;1.50;;;18.30;99.90;;;;;;5009003;28;20061;-79
2021/07/05 08:59:56;;;;;;;5.40;1.55;;;18.10;99.90;;;;;;4990962;28;20043;-79
2021/07/05 09:02:22;;;;;;;5.72;1.00;;;18.20;99.90;;;;;;5008893;28;20074;-79
2021/07/05 09:04:50;;;;;;;3.53;0.90;;;18.20;99.90;;;;;;5007464;28;20097;-79
2021/07/05 09:07:16;;;;;;;6.35;1.48;;;18.20;99.90;;;;;;5007352;28;20034;-79
2021/07/05 09:10:00;;;;;;;4.00;1.08;;;17.70;99.90;;;;;;5007256;28;20064;-79
2021/07/05 09:12:26;;;;;;;3.33;0.80;;;18.10;99.90;;;;;;5007555;28;20061;-79
2021/07/05 09:15:06;;;;;;;6.70;1.10;;;18.20;99.90;;;;;;5008278;28;20030;-79
2021/07/05 09:17:33;;;;;;;5.53;1.38;;;18.00;99.90;;;;;;4990803;28;20030;-79
2021/07/05 09:20:01;;;;;;;2.00;0.60;;;18.00;99.90;;;;;;5006956;28;20089;-79
2021/07/05 09:22:27;;;;;;;3.47;1.25;;;18.20;99.90;;;;;;5007015;28;20026;-79
2021/07/05 09:24:57;;;;;;;4.15;1.23;;;18.20;99.90;;;;;;4990717;28;20049;-79
2021/07/05 09:27:25;;;;;;;4.65;1.13;;;18.30;99.90;;;;;;4990592;28;20045;-79
2021/07/05 09:29:51;;;;;;;6.10;1.25;;;18.10;99.90;;;;;;4974622;28;20045;-79
2021/07/05 09:32:29;;;;;;;4.03;1.23;;;18.10;99.90;;;;;;5007989;28;20120;-79
2021/07/05 09:34:56;;;;;;;3.67;1.25;;;18.40;99.90;;;;;;5006994;28;20383;-79
2021/07/05 09:37:23;;;;;;;4.57;1.13;;;18.80;99.90;;;;;;5006873;28;20034;-78
2021/07/05 09:40:10;;;;;;;3.92;0.80;;;18.50;99.90;;;;;;4990449;28;20034;-79
2021/07/05 09:42:49;;;;;;;2.35;0.77;;;18.70;99.90;;;;;;4990326;28;20379;-80
2021/07/05 09:45:37;;;;;;;2.80;0.90;;;18.80;99.90;;;;;;5006544;28;20069;-79
2021/07/05 09:48:17;;;;;;;4.90;1.20;;;18.60;99.90;;;;;;5006544;28;20277;-79
2021/07/05 09:50:45;;;;;;;4.95;0.77;;;18.40;99.90;;;;;;4990206;28;20050;-79
2021/07/05 09:53:32;;;;;;;3.97;1.05;;;18.60;99.90;;;;;;4990603;28;20448;-79
2021/07/05 09:56:29;;;;;;;4.38;1.13;;;18.80;99.90;;;;;;4986859;28;20030;-79
2021/07/05 09:59:01;;;;;;;2.55;0.80;;;19.10;99.90;;;;;;4985864;28;20129;-79
2021/07/05 10:01:47;;;;;;;3.70;1.23;;;19.00;99.90;;;;;;5007589;28;20043;-79
2021/07/05 10:04:37;;;;;;;2.67;1.23;;;18.80;99.90;;;;;;4973850;28;20038;-80
2021/07/05 10:07:05;;;;;;;6.25;1.42;;;18.70;99.90;;;;;;4990388;28;20034;-79
2021/07/05 10:09:45;;;;;;;2.60;0.98;;;18.40;99.90;;;;;;4989689;28;20094;-79
2021/07/05 10:12:23;;;;;;;2.88;1.25;;;18.40;99.90;;;;;;5007359;28;20038;-79
2021/07/05 10:14:59;;;;;;;2.85;0.93;;;18.50;99.90;;;;;;4990091;28;20038;-79
2021/07/05 10:17:27;;;;;;;4.55;1.20;;;18.50;99.90;;;;;;5007356;28;20034;-80
2021/07/05 10:19:54;;;;;;;4.43;1.52;;;18.80;99.90;;;;;;5007361;28;20027;-80
2021/07/05 10:22:20;;;;;;;6.28;1.48;;;18.60;99.90;;;;;;4990026;28;20065;-79
2021/07/05 10:24:46;;;;;;;2.50;1.20;;;18.40;99.90;;;;;;4989727;28;20108;-80
2021/07/05 10:27:13;;;;;;;3.75;1.17;;;18.50;99.90;;;;;;4973487;28;20050;-80
2021/07/05 10:29:40;;;;;;;4.07;1.55;;;18.50;99.90;;;;;;4973693;28;20066;-80
2021/07/05 10:32:07;;;;;;;2.72;1.10;;;18.50;99.90;;;;;;4989602;28;20030;-80
2021/07/05 10:34:34;;;;;;;4.13;0.98;;;18.60;99.90;;;;;;5007386;28;20474;-80
2021/07/05 10:37:01;;;;;;;2.17;1.05;;;18.60;99.90;;;;;;5007046;28;20026;-80
2021/07/05 10:39:28;;;;;;;5.40;1.50;;;18.60;99.90;;;;;;4973305;28;20384;-80
2021/07/05 10:41:54;;;;;;;3.13;1.10;;;18.30;99.90;;;;;;4973227;28;20042;-80
2021/07/05 10:44:44;;;;;;;3.20;0.85;;;18.50;99.90;;;;;;4989692;28;20038;-80
2021/07/05 10:47:10;;;;;;;2.10;0.88;;;18.70;99.90;;;;;;5006748;28;20030;-80
2021/07/05 10:49:45;;;;;;;4.15;1.30;;;18.80;99.90;;;;;;4972993;28;20034;-80
2021/07/05 10:52:16;;;;;;;2.85;0.90;;;19.00;99.90;;;;;;4989310;28;20062;-80
2021/07/05 10:54:42;;;;;;;3.97;1.20;;;19.00;99.90;;;;;;5006665;28;20034;-80
2021/07/05 10:57:08;;;;;;;2.80;0.98;;;18.90;99.90;;;;;;5005060;28;20050;-81
2021/07/05 10:59:35;;;;;;;2.80;0.90;;;19.10;99.90;;;;;;5005418;28;20026;-81
2021/07/05 11:02:21;;;;;;;4.70;1.10;;;19.20;99.90;;;;;;5005204;28;20030;-80
2021/07/05 11:04:50;;;;;;;3.40;0.70;;;18.70;99.90;;;;;;4988857;28;20046;-80
2021/07/05 11:07:16;;;;;;;3.17;0.85;;;18.70;99.90;;;;;;4988885;28;20030;-80
2021/07/05 11:09:58;;;;;;;8.05;1.90;;;18.70;99.90;;;;;;4988202;28;20040;-80
2021/07/05 11:12:34;;;;;;;3.00;0.68;;;18.70;99.90;;;;;;4988348;28;20034;-81
2021/07/05 11:15:01;;;;;;;4.45;0.70;;;18.80;99.90;;;;;;5005363;28;20094;-81
2021/07/05 11:17:27;;;;;;;3.70;1.00;;;18.70;99.90;;;;;;4988532;28;20060;-80
2021/07/05 11:19:58;;;;;;;2.13;1.00;;;18.80;99.90;;;;;;4988663;28;20030;-81
2021/07/05 11:22:29;;;;;;;4.68;0.80;;;18.80;99.90;;;;;;4988397;28;20030;-81
2021/07/05 11:25:17;;;;;;;3.30;1.20;;;18.80;99.90;;;;;;4988692;28;20177;-80
2021/07/05 11:28:07;;;;;;;4.80;0.73;;;18.80;99.90;;;;;;4988361;28;20103;-81
2021/07/05 11:30:36;;;;;;;4.35;1.15;;;18.80;99.90;;;;;;4988139;28;20431;-80
2021/07/05 11:33:11;;;;;;;4.20;1.70;;;18.40;99.90;;;;;;5004564;28;20027;-81
2021/07/05 11:35:48;;;;;;;4.72;1.15;;;18.50;99.90;;;;;;5006095;28;20066;-80
2021/07/05 11:38:22;;;;;;;4.55;1.20;;;19.00;99.90;;;;;;5004476;28;20038;-80
2021/07/05 11:40:53;;;;;;;3.35;1.40;;;18.80;99.90;;;;;;4988138;28;20032;-80
2021/07/05 11:43:39;;;;;;;2.60;0.95;;;18.70;99.90;;;;;;5004314;28;20038;-80
2021/07/05 11:46:05;;;;;;;2.83;1.10;;;18.60;99.90;;;;;;4987739;28;20042;-80
2021/07/05 11:48:40;;;;;;;2.67;1.40;;;18.10;99.90;;;;;;4988130;28;20037;-81
2021/07/05 11:51:24;;;;;;;5.75;1.33;;;17.90;99.90;;;;;;4987977;28;20058;-81
2021/07/05 11:53:50;;;;;;;2.85;1.08;;;17.50;99.90;;;;;;4988246;28;20038;-81
2021/07/05 11:56:33;;;;;;;3.83;0.98;;;17.80;99.90;;;;;;4987192;28;20026;-82
2021/07/05 11:59:00;;;;;;;3.13;1.10;;;18.00;99.90;;;;;;5004430;28;20034;-81
2021/07/05 12:01:27;;;;;;;5.28;1.25;;;18.30;99.90;;;;;;5003929;28;20057;-80
2021/07/05 12:03:55;;;;;;;5.40;1.60;;;18.60;99.90;;;;;;4988268;28;20064;-80
2021/07/05 12:06:22;;;;;;;3.35;1.08;;;18.90;99.90;;;;;;4988152;28;20372;-80
2021/07/05 12:09:06;;;;;;;2.58;0.80;;;19.00;99.90;;;;;;4971911;28;20486;-80
2021/07/05 12:11:46;;;;;;;2.03;0.70;;;19.30;99.90;;;;;;4987699;28;20081;-80
2021/07/05 12:14:16;;;;;;;3.22;0.70;;;19.90;99.90;;;;;;5004158;28;20121;-80
2021/07/05 12:16:48;;;;;;;2.60;0.77;;;19.90;99.90;;;;;;5003639;28;20438;-80
2021/07/05 12:19:14;;;;;;;2.90;0.80;;;19.90;99.90;;;;;;4987748;28;20100;-80
2021/07/05 12:21:53;;;;;;;4.45;1.05;;;20.30;99.90;;;;;;5004217;28;20506;-80
2021/07/05 12:24:25;;;;;;;2.28;0.90;;;20.40;99.90;;;;;;4988138;28;20050;-80
2021/07/05 12:27:02;;;;;;;1.83;0.60;;;20.30;99.90;;;;;;4987829;28;20041;-81
2021/07/05 12:29:35;;;;;;;1.60;0.60;;;20.50;99.90;;;;;;4988057;28;20031;-80
2021/07/05 12:32:05;;;;;;;1.52;0.60;;;20.30;99.90;;;;;;4971753;28;20065;-81
2021/07/05 12:34:53;;;;;;;1.67;0.60;;;20.40;99.90;;;;;;4988135;28;20034;-81
2021/07/05 12:37:37;;;;;;;1.80;0.40;;;20.50;99.90;;;;;;4994516;28;20036;-81
2021/07/05 12:40:15;;;;;;;2.10;0.43;;;21.00;99.90;;;;;;4971703;28;20058;-80
2021/07/05 12:42:52;;;;;;;1.33;0.40;;;21.60;99.90;;;;;;5003879;28;20049;-80
2021/07/05 12:45:20;;;;;;;1.85;0.50;;;21.60;99.90;;;;;;5003927;28;20148;-81
2021/07/05 12:47:48;;;;;;;1.55;0.40;;;21.20;99.90;;;;;;4988420;28;20046;-81
2021/07/05 12:50:16;;;;;;;1.38;0.40;;;21.20;99.90;;;;;;5007036;28;20037;-81
2021/07/05 12:53:02;;;;;;;1.52;0.40;;;21.30;99.90;;;;;;4990860;28;20102;-81
2021/07/05 12:55:28;;;;;;;0.93;0.28;;;21.60;99.90;;;;;;5007099;28;20033;-81
2021/07/05 12:57:54;;;;;;;1.23;0.30;;;21.80;99.90;;;;;;4990682;28;20057;-80